sensor_id;sensor_type;location;lat;lon;timestamp;temperature;humidity
1568;DHT22;777;47.156;8.326;2023-12-20T00:01:05;1.10;99.90
1568;DHT22;777;47.156;8.326;2023-12-20T00:03:32;1.20;99.90
1568;DHT22;777;47.156;8.326;2023-12-20T00:05:59;1.20;99.90
1568;DHT22;777;47.156;8.326;2023-12-20T00:08:26;1.20;99.90
1568;DHT22;777;47.156;8.326;2023-12-20T00:10:53;1.30;99.90
1568;DHT22;777;47.156;8.326;2023-12-20T00:13:21;1.30;99.90
1568;DHT22;777;47.156;8.326;2023-12-20T00:15:48;1.40;99.90
1568;DHT22;777;47.156;8.326;2023-12-20T00:18:15;1.40;99.90
1568;DHT22;777;47.156;8.326;2023-12-20T00:20:42;1.40;99.90
1568;DHT22;777;47.156;8.326;2023-12-20T00:23:09;1.50;99.90
1568;DHT22;777;47.156;8.326;2023-12-20T00:25:36;1.50;99.90
1568;DHT22;777;47.156;8.326;2023-12-20T00:28:03;1.50;99.90
1568;DHT22;777;47.156;8.326;2023-12-20T00:30:31;1.50;99.90
1568;DHT22;777;47.156;8.326;2023-12-20T00:32:58;1.50;99.90
1568;DHT22;777;47.156;8.326;2023-12-20T00:35:25;1.50;99.90
1568;DHT22;777;47.156;8.326;2023-12-20T00:37:52;1.60;99.90
1568;DHT22;777;47.156;8.326;2023-12-20T00:40:19;1.50;99.90
1568;DHT22;777;47.156;8.326;2023-12-20T00:42:46;1.60;99.90
1568;DHT22;777;47.156;8.326;2023-12-20T00:45:13;1.60;99.90
1568;DHT22;777;47.156;8.326;2023-12-20T00:47:42;1.50;99.90
1568;DHT22;777;47.156;8.326;2023-12-20T00:50:09;1.50;99.90
1568;DHT22;777;47.156;8.326;2023-12-20T00:52:36;1.50;99.90
1568;DHT22;777;47.156;8.326;2023-12-20T00:55:04;1.50;99.90
1568;DHT22;777;47.156;8.326;2023-12-20T00:57:31;1.60;99.90
1568;DHT22;777;47.156;8.326;2023-12-20T00:59:58;1.50;99.90
1568;DHT22;777;47.156;8.326;2023-12-20T01:02:24;1.60;99.90
1568;DHT22;777;47.156;8.326;2023-12-20T01:04:53;1.60;99.90
1568;DHT22;777;47.156;8.326;2023-12-20T01:07:20;1.60;99.90
1568;DHT22;777;47.156;8.326;2023-12-20T01:09:46;1.50;99.90
1568;DHT22;777;47.156;8.326;2023-12-20T01:12:13;1.50;99.90
1568;DHT22;777;47.156;8.326;2023-12-20T01:14:40;1.60;99.90
1568;DHT22;777;47.156;8.326;2023-12-20T01:17:08;1.50;99.90
1568;DHT22;777;47.156;8.326;2023-12-20T01:19:35;1.50;99.90
1568;DHT22;777;47.156;8.326;2023-12-20T01:22:03;1.50;99.90
1568;DHT22;777;47.156;8.326;2023-12-20T01:24:31;1.50;99.90
1568;DHT22;777;47.156;8.326;2023-12-20T01:26:58;1.40;99.90
1568;DHT22;777;47.156;8.326;2023-12-20T01:29:25;1.40;99.90
1568;DHT22;777;47.156;8.326;2023-12-20T01:31:52;1.20;99.90
1568;DHT22;777;47.156;8.326;2023-12-20T01:34:19;1.20;99.90
1568;DHT22;777;47.156;8.326;2023-12-20T01:36:46;1.10;99.90
1568;DHT22;777;47.156;8.326;2023-12-20T01:39:14;1.00;99.90
1568;DHT22;777;47.156;8.326;2023-12-20T01:41:41;1.00;99.90
1568;DHT22;777;47.156;8.326;2023-12-20T01:44:08;1.00;99.90
1568;DHT22;777;47.156;8.326;2023-12-20T01:46:35;1.00;99.90
1568;DHT22;777;47.156;8.326;2023-12-20T01:49:02;1.00;99.90
1568;DHT22;777;47.156;8.326;2023-12-20T01:51:29;1.10;99.90
1568;DHT22;777;47.156;8.326;2023-12-20T01:53:58;1.00;99.90
1568;DHT22;777;47.156;8.326;2023-12-20T01:56:28;1.00;99.90
1568;DHT22;777;47.156;8.326;2023-12-20T01:58:56;1.00;99.90
1568;DHT22;777;47.156;8.326;2023-12-20T02:01:23;1.10;99.90
1568;DHT22;777;47.156;8.326;2023-12-20T02:03:51;1.10;99.90
1568;DHT22;777;47.156;8.326;2023-12-20T02:06:18;1.10;99.90
1568;DHT22;777;47.156;8.326;2023-12-20T02:08:47;1.10;99.90
1568;DHT22;777;47.156;8.326;2023-12-20T02:11:14;1.20;99.90
1568;DHT22;777;47.156;8.326;2023-12-20T02:13:43;1.10;99.90
1568;DHT22;777;47.156;8.326;2023-12-20T02:16:10;1.10;99.90
1568;DHT22;777;47.156;8.326;2023-12-20T02:18:36;1.10;99.90
1568;DHT22;777;47.156;8.326;2023-12-20T02:21:04;1.20;99.90
1568;DHT22;777;47.156;8.326;2023-12-20T02:23:32;1.20;99.90
1568;DHT22;777;47.156;8.326;2023-12-20T02:25:59;1.30;99.90
1568;DHT22;777;47.156;8.326;2023-12-20T02:28:26;1.30;99.90
1568;DHT22;777;47.156;8.326;2023-12-20T02:30:53;1.40;99.90
1568;DHT22;777;47.156;8.326;2023-12-20T02:33:20;1.50;99.90
1568;DHT22;777;47.156;8.326;2023-12-20T02:35:47;1.50;99.90
1568;DHT22;777;47.156;8.326;2023-12-20T02:38:14;1.50;99.90
1568;DHT22;777;47.156;8.326;2023-12-20T02:40:42;1.60;99.90
1568;DHT22;777;47.156;8.326;2023-12-20T02:43:09;1.60;99.90
1568;DHT22;777;47.156;8.326;2023-12-20T02:45:36;1.70;99.90
1568;DHT22;777;47.156;8.326;2023-12-20T02:48:03;1.70;99.90
1568;DHT22;777;47.156;8.326;2023-12-20T02:50:29;1.80;99.90
1568;DHT22;777;47.156;8.326;2023-12-20T02:52:56;1.80;99.90
1568;DHT22;777;47.156;8.326;2023-12-20T02:55:23;1.80;99.90
1568;DHT22;777;47.156;8.326;2023-12-20T02:57:51;1.80;99.90
1568;DHT22;777;47.156;8.326;2023-12-20T03:00:18;1.90;99.90
1568;DHT22;777;47.156;8.326;2023-12-20T03:02:45;1.90;99.90
1568;DHT22;777;47.156;8.326;2023-12-20T03:05:12;1.90;99.90
1568;DHT22;777;47.156;8.326;2023-12-20T03:07:39;1.90;99.90
1568;DHT22;777;47.156;8.326;2023-12-20T03:10:07;2.00;99.90
1568;DHT22;777;47.156;8.326;2023-12-20T03:12:35;2.00;99.90
1568;DHT22;777;47.156;8.326;2023-12-20T03:15:03;2.00;99.90
1568;DHT22;777;47.156;8.326;2023-12-20T03:17:31;2.00;99.90
1568;DHT22;777;47.156;8.326;2023-12-20T03:19:58;2.00;99.90
1568;DHT22;777;47.156;8.326;2023-12-20T03:22:25;2.10;99.90
1568;DHT22;777;47.156;8.326;2023-12-20T03:24:52;2.10;99.90
1568;DHT22;777;47.156;8.326;2023-12-20T03:27:18;2.10;99.90
1568;DHT22;777;47.156;8.326;2023-12-20T03:29:45;2.10;99.90
1568;DHT22;777;47.156;8.326;2023-12-20T03:32:14;2.20;99.90
1568;DHT22;777;47.156;8.326;2023-12-20T03:34:40;2.20;99.90
1568;DHT22;777;47.156;8.326;2023-12-20T03:37:07;2.20;99.90
1568;DHT22;777;47.156;8.326;2023-12-20T03:39:34;2.20;99.90
1568;DHT22;777;47.156;8.326;2023-12-20T03:42:01;2.20;99.90
1568;DHT22;777;47.156;8.326;2023-12-20T03:44:28;2.20;99.90
1568;DHT22;777;47.156;8.326;2023-12-20T03:46:55;2.10;99.90
1568;DHT22;777;47.156;8.326;2023-12-20T03:49:23;2.10;99.90
1568;DHT22;777;47.156;8.326;2023-12-20T03:51:50;2.00;99.90
1568;DHT22;777;47.156;8.326;2023-12-20T03:54:17;2.00;99.90
1568;DHT22;777;47.156;8.326;2023-12-20T03:56:44;2.10;99.90
1568;DHT22;777;47.156;8.326;2023-12-20T03:59:11;2.10;99.90
1568;DHT22;777;47.156;8.326;2023-12-20T04:01:38;2.10;99.90
1568;DHT22;777;47.156;8.326;2023-12-20T04:04:05;2.20;99.90
1568;DHT22;777;47.156;8.326;2023-12-20T04:06:33;2.30;99.90
1568;DHT22;777;47.156;8.326;2023-12-20T04:09:00;2.40;99.90
1568;DHT22;777;47.156;8.326;2023-12-20T04:11:27;2.40;99.90
1568;DHT22;777;47.156;8.326;2023-12-20T04:13:54;2.40;99.90
1568;DHT22;777;47.156;8.326;2023-12-20T04:16:21;2.40;99.90
1568;DHT22;777;47.156;8.326;2023-12-20T04:18:47;2.40;99.90
1568;DHT22;777;47.156;8.326;2023-12-20T04:21:14;2.50;99.90
1568;DHT22;777;47.156;8.326;2023-12-20T04:23:42;2.50;99.90
1568;DHT22;777;47.156;8.326;2023-12-20T04:26:09;2.50;99.90
1568;DHT22;777;47.156;8.326;2023-12-20T04:28:36;2.50;99.90
1568;DHT22;777;47.156;8.326;2023-12-20T04:31:03;2.50;99.90
1568;DHT22;777;47.156;8.326;2023-12-20T04:33:30;2.50;99.90
1568;DHT22;777;47.156;8.326;2023-12-20T04:35:57;2.50;99.90
1568;DHT22;777;47.156;8.326;2023-12-20T04:38:25;2.50;99.90
1568;DHT22;777;47.156;8.326;2023-12-20T04:40:53;2.50;99.90
1568;DHT22;777;47.156;8.326;2023-12-20T04:43:21;2.60;99.90
1568;DHT22;777;47.156;8.326;2023-12-20T04:45:48;2.70;99.90
1568;DHT22;777;47.156;8.326;2023-12-20T04:48:14;2.80;99.90
1568;DHT22;777;47.156;8.326;2023-12-20T04:50:41;2.80;99.90
1568;DHT22;777;47.156;8.326;2023-12-20T04:53:08;2.90;99.90
1568;DHT22;777;47.156;8.326;2023-12-20T04:55:35;2.90;99.90
1568;DHT22;777;47.156;8.326;2023-12-20T04:58:04;3.00;99.90
1568;DHT22;777;47.156;8.326;2023-12-20T05:00:30;3.00;99.90
1568;DHT22;777;47.156;8.326;2023-12-20T05:02:57;2.90;99.90
1568;DHT22;777;47.156;8.326;2023-12-20T05:05:24;2.80;99.90
1568;DHT22;777;47.156;8.326;2023-12-20T05:07:51;2.70;99.90
1568;DHT22;777;47.156;8.326;2023-12-20T05:10:18;2.70;99.90
1568;DHT22;777;47.156;8.326;2023-12-20T05:12:45;2.60;99.90
1568;DHT22;777;47.156;8.326;2023-12-20T05:15:13;2.60;99.90
1568;DHT22;777;47.156;8.326;2023-12-20T05:17:40;2.60;99.90
1568;DHT22;777;47.156;8.326;2023-12-20T05:20:08;2.60;99.90
1568;DHT22;777;47.156;8.326;2023-12-20T05:22:36;2.60;99.90
1568;DHT22;777;47.156;8.326;2023-12-20T05:25:03;2.60;99.90
1568;DHT22;777;47.156;8.326;2023-12-20T05:27:30;2.50;99.90
1568;DHT22;777;47.156;8.326;2023-12-20T05:29:57;2.50;99.90
1568;DHT22;777;47.156;8.326;2023-12-20T05:32:25;2.60;99.90
1568;DHT22;777;47.156;8.326;2023-12-20T05:34:52;2.60;99.90
1568;DHT22;777;47.156;8.326;2023-12-20T05:37:19;2.70;99.90
1568;DHT22;777;47.156;8.326;2023-12-20T05:39:46;2.70;99.90
1568;DHT22;777;47.156;8.326;2023-12-20T05:42:13;2.80;99.90
1568;DHT22;777;47.156;8.326;2023-12-20T05:44:40;2.80;99.90
1568;DHT22;777;47.156;8.326;2023-12-20T05:47:07;2.80;99.90
1568;DHT22;777;47.156;8.326;2023-12-20T05:49:35;2.80;99.90
1568;DHT22;777;47.156;8.326;2023-12-20T05:52:02;2.80;99.90
1568;DHT22;777;47.156;8.326;2023-12-20T05:54:29;2.80;99.90
1568;DHT22;777;47.156;8.326;2023-12-20T05:56:56;2.80;99.90
1568;DHT22;777;47.156;8.326;2023-12-20T05:59:23;2.90;99.90
1568;DHT22;777;47.156;8.326;2023-12-20T06:01:50;3.00;99.90
1568;DHT22;777;47.156;8.326;2023-12-20T06:04:17;3.10;99.90
1568;DHT22;777;47.156;8.326;2023-12-20T06:06:45;3.10;99.90
1568;DHT22;777;47.156;8.326;2023-12-20T06:09:12;3.10;99.90
1568;DHT22;777;47.156;8.326;2023-12-20T06:11:40;3.00;99.90
1568;DHT22;777;47.156;8.326;2023-12-20T06:14:07;3.20;99.90
1568;DHT22;777;47.156;8.326;2023-12-20T06:16:34;3.20;99.90
1568;DHT22;777;47.156;8.326;2023-12-20T06:19:01;3.30;99.90
1568;DHT22;777;47.156;8.326;2023-12-20T06:21:28;3.50;99.90
1568;DHT22;777;47.156;8.326;2023-12-20T06:23:58;3.60;99.90
1568;DHT22;777;47.156;8.326;2023-12-20T06:26:25;3.60;99.90
1568;DHT22;777;47.156;8.326;2023-12-20T06:28:52;3.60;99.90
1568;DHT22;777;47.156;8.326;2023-12-20T06:31:19;3.50;99.90
1568;DHT22;777;47.156;8.326;2023-12-20T06:33:45;3.40;99.90
1568;DHT22;777;47.156;8.326;2023-12-20T06:36:12;3.40;99.90
1568;DHT22;777;47.156;8.326;2023-12-20T06:38:40;3.40;99.90
1568;DHT22;777;47.156;8.326;2023-12-20T06:41:12;3.20;99.90
1568;DHT22;777;47.156;8.326;2023-12-20T06:43:39;3.10;99.90
1568;DHT22;777;47.156;8.326;2023-12-20T06:46:06;3.10;99.90
1568;DHT22;777;47.156;8.326;2023-12-20T06:48:33;3.10;99.90
1568;DHT22;777;47.156;8.326;2023-12-20T06:51:00;3.10;99.90
1568;DHT22;777;47.156;8.326;2023-12-20T06:53:28;3.00;99.90
1568;DHT22;777;47.156;8.326;2023-12-20T06:55:55;3.10;99.90
1568;DHT22;777;47.156;8.326;2023-12-20T06:58:24;3.10;99.90
1568;DHT22;777;47.156;8.326;2023-12-20T07:00:51;3.00;99.90
1568;DHT22;777;47.156;8.326;2023-12-20T07:03:18;3.00;99.90
1568;DHT22;777;47.156;8.326;2023-12-20T07:05:45;3.00;99.90
1568;DHT22;777;47.156;8.326;2023-12-20T07:08:12;3.00;99.90
1568;DHT22;777;47.156;8.326;2023-12-20T07:10:40;3.00;99.90
1568;DHT22;777;47.156;8.326;2023-12-20T07:13:07;3.00;99.90
1568;DHT22;777;47.156;8.326;2023-12-20T07:15:36;3.00;99.90
1568;DHT22;777;47.156;8.326;2023-12-20T07:18:04;3.10;99.90
1568;DHT22;777;47.156;8.326;2023-12-20T07:20:32;3.20;99.90
1568;DHT22;777;47.156;8.326;2023-12-20T07:22:59;3.30;99.90
1568;DHT22;777;47.156;8.326;2023-12-20T07:25:26;3.40;99.90
1568;DHT22;777;47.156;8.326;2023-12-20T07:27:53;3.40;99.90
1568;DHT22;777;47.156;8.326;2023-12-20T07:30:20;3.40;99.90
1568;DHT22;777;47.156;8.326;2023-12-20T07:32:48;3.40;99.90
1568;DHT22;777;47.156;8.326;2023-12-20T07:35:15;3.50;99.90
1568;DHT22;777;47.156;8.326;2023-12-20T07:37:42;3.50;99.90
1568;DHT22;777;47.156;8.326;2023-12-20T07:40:10;3.60;99.90
1568;DHT22;777;47.156;8.326;2023-12-20T07:42:37;3.70;99.90
1568;DHT22;777;47.156;8.326;2023-12-20T07:45:05;3.70;99.90
1568;DHT22;777;47.156;8.326;2023-12-20T07:47:32;3.70;99.90
1568;DHT22;777;47.156;8.326;2023-12-20T07:50:00;3.80;99.90
1568;DHT22;777;47.156;8.326;2023-12-20T07:52:28;3.90;99.90
1568;DHT22;777;47.156;8.326;2023-12-20T07:54:55;4.00;99.90
1568;DHT22;777;47.156;8.326;2023-12-20T07:57:23;4.10;99.90
1568;DHT22;777;47.156;8.326;2023-12-20T07:59:49;4.00;99.90
1568;DHT22;777;47.156;8.326;2023-12-20T08:02:16;4.00;99.90
1568;DHT22;777;47.156;8.326;2023-12-20T08:04:43;4.00;99.90
1568;DHT22;777;47.156;8.326;2023-12-20T08:07:12;4.10;99.90
1568;DHT22;777;47.156;8.326;2023-12-20T08:09:39;4.10;99.90
1568;DHT22;777;47.156;8.326;2023-12-20T08:12:06;4.10;99.90
1568;DHT22;777;47.156;8.326;2023-12-20T08:14:33;4.10;99.90
1568;DHT22;777;47.156;8.326;2023-12-20T08:17:00;4.20;99.90
1568;DHT22;777;47.156;8.326;2023-12-20T08:19:27;4.10;99.90
1568;DHT22;777;47.156;8.326;2023-12-20T08:21:54;4.20;99.90
1568;DHT22;777;47.156;8.326;2023-12-20T08:24:23;4.20;99.90
1568;DHT22;777;47.156;8.326;2023-12-20T08:26:50;4.20;99.90
1568;DHT22;777;47.156;8.326;2023-12-20T08:29:17;4.20;99.90
1568;DHT22;777;47.156;8.326;2023-12-20T08:31:43;4.30;99.90
1568;DHT22;777;47.156;8.326;2023-12-20T08:34:12;4.20;99.90
1568;DHT22;777;47.156;8.326;2023-12-20T08:36:40;4.20;99.90
1568;DHT22;777;47.156;8.326;2023-12-20T08:39:07;4.20;99.90
1568;DHT22;777;47.156;8.326;2023-12-20T08:41:36;4.20;99.90
1568;DHT22;777;47.156;8.326;2023-12-20T08:44:03;4.20;99.90
1568;DHT22;777;47.156;8.326;2023-12-20T08:46:30;4.20;99.90
1568;DHT22;777;47.156;8.326;2023-12-20T08:48:57;4.30;99.90
1568;DHT22;777;47.156;8.326;2023-12-20T08:51:24;4.30;99.90
1568;DHT22;777;47.156;8.326;2023-12-20T08:53:51;4.20;99.90
1568;DHT22;777;47.156;8.326;2023-12-20T08:56:18;4.30;99.90
1568;DHT22;777;47.156;8.326;2023-12-20T08:58:46;4.30;99.90
1568;DHT22;777;47.156;8.326;2023-12-20T09:01:13;4.30;99.90
1568;DHT22;777;47.156;8.326;2023-12-20T09:03:40;4.30;99.90
1568;DHT22;777;47.156;8.326;2023-12-20T09:06:07;4.30;99.90
1568;DHT22;777;47.156;8.326;2023-12-20T09:08:34;4.30;99.90
1568;DHT22;777;47.156;8.326;2023-12-20T09:11:01;4.30;99.90
1568;DHT22;777;47.156;8.326;2023-12-20T09:13:28;4.40;99.90
1568;DHT22;777;47.156;8.326;2023-12-20T09:15:58;4.40;99.90
1568;DHT22;777;47.156;8.326;2023-12-20T09:18:26;4.50;99.90
1568;DHT22;777;47.156;8.326;2023-12-20T09:20:52;4.50;99.90
1568;DHT22;777;47.156;8.326;2023-12-20T09:23:19;4.50;99.90
1568;DHT22;777;47.156;8.326;2023-12-20T09:25:46;4.50;99.90
1568;DHT22;777;47.156;8.326;2023-12-20T09:28:13;4.60;99.90
1568;DHT22;777;47.156;8.326;2023-12-20T09:30:40;4.60;99.90
1568;DHT22;777;47.156;8.326;2023-12-20T09:33:08;4.70;99.90
1568;DHT22;777;47.156;8.326;2023-12-20T09:35:35;4.80;99.90
1568;DHT22;777;47.156;8.326;2023-12-20T09:38:02;4.80;99.90
1568;DHT22;777;47.156;8.326;2023-12-20T09:40:32;4.80;99.90
1568;DHT22;777;47.156;8.326;2023-12-20T09:43:04;4.90;99.90
1568;DHT22;777;47.156;8.326;2023-12-20T09:45:33;4.80;99.90
1568;DHT22;777;47.156;8.326;2023-12-20T09:48:01;4.90;99.90
1568;DHT22;777;47.156;8.326;2023-12-20T09:50:31;4.90;99.90
1568;DHT22;777;47.156;8.326;2023-12-20T09:53:01;4.90;99.90
1568;DHT22;777;47.156;8.326;2023-12-20T09:55:30;4.90;99.90
1568;DHT22;777;47.156;8.326;2023-12-20T09:57:59;4.90;99.90
1568;DHT22;777;47.156;8.326;2023-12-20T10:00:26;4.90;99.90
1568;DHT22;777;47.156;8.326;2023-12-20T10:02:57;4.90;99.90
1568;DHT22;777;47.156;8.326;2023-12-20T10:05:31;4.80;99.90
1568;DHT22;777;47.156;8.326;2023-12-20T10:07:59;4.90;99.90
1568;DHT22;777;47.156;8.326;2023-12-20T10:10:26;4.90;99.90
1568;DHT22;777;47.156;8.326;2023-12-20T10:13:04;4.90;99.90
1568;DHT22;777;47.156;8.326;2023-12-20T10:15:32;4.80;99.90
1568;DHT22;777;47.156;8.326;2023-12-20T10:18:00;4.80;99.90
1568;DHT22;777;47.156;8.326;2023-12-20T10:20:27;4.90;99.90
1568;DHT22;777;47.156;8.326;2023-12-20T10:22:57;5.00;99.90
1568;DHT22;777;47.156;8.326;2023-12-20T10:25:24;4.90;99.90
1568;DHT22;777;47.156;8.326;2023-12-20T10:28:08;5.00;99.90
1568;DHT22;777;47.156;8.326;2023-12-20T10:30:35;5.00;99.90
1568;DHT22;777;47.156;8.326;2023-12-20T10:33:02;5.10;99.90
1568;DHT22;777;47.156;8.326;2023-12-20T10:35:29;5.10;99.90
1568;DHT22;777;47.156;8.326;2023-12-20T10:38:00;5.20;99.90
1568;DHT22;777;47.156;8.326;2023-12-20T10:40:29;5.30;99.90
1568;DHT22;777;47.156;8.326;2023-12-20T10:42:58;5.40;99.90
1568;DHT22;777;47.156;8.326;2023-12-20T10:45:25;5.50;99.90
1568;DHT22;777;47.156;8.326;2023-12-20T10:47:52;5.40;99.90
1568;DHT22;777;47.156;8.326;2023-12-20T10:50:19;5.40;99.90
1568;DHT22;777;47.156;8.326;2023-12-20T10:52:47;5.30;99.90
1568;DHT22;777;47.156;8.326;2023-12-20T10:55:15;5.30;99.90
1568;DHT22;777;47.156;8.326;2023-12-20T10:57:43;5.30;99.90
1568;DHT22;777;47.156;8.326;2023-12-20T11:00:17;5.30;99.90
1568;DHT22;777;47.156;8.326;2023-12-20T11:02:45;5.30;99.90
1568;DHT22;777;47.156;8.326;2023-12-20T11:05:22;5.30;99.90
1568;DHT22;777;47.156;8.326;2023-12-20T11:07:57;5.40;99.90
1568;DHT22;777;47.156;8.326;2023-12-20T11:10:30;5.40;99.90
1568;DHT22;777;47.156;8.326;2023-12-20T11:13:01;5.60;99.90
1568;DHT22;777;47.156;8.326;2023-12-20T11:15:35;5.60;99.90
1568;DHT22;777;47.156;8.326;2023-12-20T11:18:04;5.60;99.90
1568;DHT22;777;47.156;8.326;2023-12-20T11:20:36;5.60;99.90
1568;DHT22;777;47.156;8.326;2023-12-20T11:23:04;5.70;99.90
1568;DHT22;777;47.156;8.326;2023-12-20T11:25:46;5.90;99.90
1568;DHT22;777;47.156;8.326;2023-12-20T11:28:13;5.90;99.90
1568;DHT22;777;47.156;8.326;2023-12-20T11:30:42;6.10;99.90
1568;DHT22;777;47.156;8.326;2023-12-20T11:33:09;6.20;99.90
1568;DHT22;777;47.156;8.326;2023-12-20T11:35:36;6.40;99.90
1568;DHT22;777;47.156;8.326;2023-12-20T11:38:07;6.30;99.90
1568;DHT22;777;47.156;8.326;2023-12-20T11:40:36;6.40;99.90
1568;DHT22;777;47.156;8.326;2023-12-20T11:43:04;6.70;99.90
1568;DHT22;777;47.156;8.326;2023-12-20T11:45:31;6.90;99.90
1568;DHT22;777;47.156;8.326;2023-12-20T11:47:58;6.90;99.90
1568;DHT22;777;47.156;8.326;2023-12-20T11:50:25;7.00;99.90
1568;DHT22;777;47.156;8.326;2023-12-20T11:52:53;7.00;99.90
1568;DHT22;777;47.156;8.326;2023-12-20T11:55:21;6.80;99.90
1568;DHT22;777;47.156;8.326;2023-12-20T11:57:50;6.80;99.90
1568;DHT22;777;47.156;8.326;2023-12-20T12:00:18;6.60;99.90
1568;DHT22;777;47.156;8.326;2023-12-20T12:02:59;6.50;99.90
1568;DHT22;777;47.156;8.326;2023-12-20T12:05:27;6.40;99.90
1568;DHT22;777;47.156;8.326;2023-12-20T12:07:54;6.40;99.90
1568;DHT22;777;47.156;8.326;2023-12-20T12:10:21;6.20;99.90
1568;DHT22;777;47.156;8.326;2023-12-20T12:12:50;6.20;99.90
1568;DHT22;777;47.156;8.326;2023-12-20T12:15:17;6.20;99.90
1568;DHT22;777;47.156;8.326;2023-12-20T12:17:44;6.10;99.90
1568;DHT22;777;47.156;8.326;2023-12-20T12:20:11;6.10;99.90
1568;DHT22;777;47.156;8.326;2023-12-20T12:22:38;6.10;99.90
1568;DHT22;777;47.156;8.326;2023-12-20T12:25:12;6.00;99.90
1568;DHT22;777;47.156;8.326;2023-12-20T12:27:40;6.00;99.90
1568;DHT22;777;47.156;8.326;2023-12-20T12:30:09;5.80;99.90
1568;DHT22;777;47.156;8.326;2023-12-20T12:32:38;5.80;99.90
1568;DHT22;777;47.156;8.326;2023-12-20T12:35:06;5.70;99.90
1568;DHT22;777;47.156;8.326;2023-12-20T12:37:35;5.70;99.90
1568;DHT22;777;47.156;8.326;2023-12-20T12:40:04;5.70;99.90
1568;DHT22;777;47.156;8.326;2023-12-20T12:42:31;5.70;99.90
1568;DHT22;777;47.156;8.326;2023-12-20T12:44:58;5.60;99.90
1568;DHT22;777;47.156;8.326;2023-12-20T12:47:27;5.60;99.90
1568;DHT22;777;47.156;8.326;2023-12-20T12:49:54;5.60;99.90
1568;DHT22;777;47.156;8.326;2023-12-20T12:52:20;5.60;99.90
1568;DHT22;777;47.156;8.326;2023-12-20T12:54:48;5.70;99.90
1568;DHT22;777;47.156;8.326;2023-12-20T12:57:15;5.70;99.90
1568;DHT22;777;47.156;8.326;2023-12-20T12:59:43;5.70;99.90
1568;DHT22;777;47.156;8.326;2023-12-20T13:02:11;5.70;99.90
1568;DHT22;777;47.156;8.326;2023-12-20T13:04:40;5.70;99.90
1568;DHT22;777;47.156;8.326;2023-12-20T13:07:08;5.70;99.90
1568;DHT22;777;47.156;8.326;2023-12-20T13:09:36;5.70;99.90
1568;DHT22;777;47.156;8.326;2023-12-20T13:12:04;5.70;99.90
1568;DHT22;777;47.156;8.326;2023-12-20T13:14:32;5.70;99.90
1568;DHT22;777;47.156;8.326;2023-12-20T13:17:00;5.70;99.90
1568;DHT22;777;47.156;8.326;2023-12-20T13:19:27;5.70;99.90
1568;DHT22;777;47.156;8.326;2023-12-20T13:21:55;5.70;99.90
1568;DHT22;777;47.156;8.326;2023-12-20T13:24:23;5.70;99.90
1568;DHT22;777;47.156;8.326;2023-12-20T13:26:50;5.70;99.90
1568;DHT22;777;47.156;8.326;2023-12-20T13:29:17;5.70;99.90
1568;DHT22;777;47.156;8.326;2023-12-20T13:31:44;5.70;99.90
1568;DHT22;777;47.156;8.326;2023-12-20T13:34:11;5.70;99.90
1568;DHT22;777;47.156;8.326;2023-12-20T13:36:38;5.70;99.90
1568;DHT22;777;47.156;8.326;2023-12-20T13:39:06;5.70;99.90
1568;DHT22;777;47.156;8.326;2023-12-20T13:41:34;5.70;99.90
1568;DHT22;777;47.156;8.326;2023-12-20T13:44:01;5.60;99.90
1568;DHT22;777;47.156;8.326;2023-12-20T13:46:29;5.50;99.90
1568;DHT22;777;47.156;8.326;2023-12-20T13:48:55;5.50;99.90
1568;DHT22;777;47.156;8.326;2023-12-20T13:51:22;5.50;99.90
1568;DHT22;777;47.156;8.326;2023-12-20T13:53:49;5.50;99.90
1568;DHT22;777;47.156;8.326;2023-12-20T13:56:18;5.50;99.90
1568;DHT22;777;47.156;8.326;2023-12-20T13:58:45;5.50;99.90
1568;DHT22;777;47.156;8.326;2023-12-20T14:01:13;5.50;99.90
1568;DHT22;777;47.156;8.326;2023-12-20T14:03:40;5.60;99.90
1568;DHT22;777;47.156;8.326;2023-12-20T14:06:07;5.60;99.90
1568;DHT22;777;47.156;8.326;2023-12-20T14:08:34;5.50;99.90
1568;DHT22;777;47.156;8.326;2023-12-20T14:11:01;5.50;99.90
1568;DHT22;777;47.156;8.326;2023-12-20T14:13:30;5.40;99.90
1568;DHT22;777;47.156;8.326;2023-12-20T14:15:57;5.40;99.90
1568;DHT22;777;47.156;8.326;2023-12-20T14:18:26;5.40;99.90
1568;DHT22;777;47.156;8.326;2023-12-20T14:20:53;5.30;99.90
1568;DHT22;777;47.156;8.326;2023-12-20T14:23:20;5.30;99.90
1568;DHT22;777;47.156;8.326;2023-12-20T14:25:48;5.30;99.90
1568;DHT22;777;47.156;8.326;2023-12-20T14:28:15;5.20;99.90
1568;DHT22;777;47.156;8.326;2023-12-20T14:30:43;5.20;99.90
1568;DHT22;777;47.156;8.326;2023-12-20T14:33:10;5.20;99.90
1568;DHT22;777;47.156;8.326;2023-12-20T14:35:37;5.10;99.90
1568;DHT22;777;47.156;8.326;2023-12-20T14:38:04;5.10;99.90
1568;DHT22;777;47.156;8.326;2023-12-20T14:40:31;5.00;99.90
1568;DHT22;777;47.156;8.326;2023-12-20T14:42:58;5.00;99.90
1568;DHT22;777;47.156;8.326;2023-12-20T14:45:25;4.80;99.90
1568;DHT22;777;47.156;8.326;2023-12-20T14:47:54;4.80;99.90
1568;DHT22;777;47.156;8.326;2023-12-20T14:50:22;4.80;99.90
1568;DHT22;777;47.156;8.326;2023-12-20T14:52:49;4.70;99.90
1568;DHT22;777;47.156;8.326;2023-12-20T14:55:16;4.80;99.90
1568;DHT22;777;47.156;8.326;2023-12-20T14:57:43;4.70;99.90
1568;DHT22;777;47.156;8.326;2023-12-20T15:00:10;4.60;99.90
1568;DHT22;777;47.156;8.326;2023-12-20T15:02:41;4.50;99.90
1568;DHT22;777;47.156;8.326;2023-12-20T15:05:10;4.50;99.90
1568;DHT22;777;47.156;8.326;2023-12-20T15:07:37;4.50;99.90
1568;DHT22;777;47.156;8.326;2023-12-20T15:10:05;4.50;99.90
1568;DHT22;777;47.156;8.326;2023-12-20T15:12:32;4.40;99.90
1568;DHT22;777;47.156;8.326;2023-12-20T15:15:00;4.40;99.90
1568;DHT22;777;47.156;8.326;2023-12-20T15:17:27;4.30;99.90
1568;DHT22;777;47.156;8.326;2023-12-20T15:19:54;4.30;99.90
1568;DHT22;777;47.156;8.326;2023-12-20T15:22:22;4.30;99.90
1568;DHT22;777;47.156;8.326;2023-12-20T15:24:51;4.30;99.90
1568;DHT22;777;47.156;8.326;2023-12-20T15:27:20;4.20;99.90
1568;DHT22;777;47.156;8.326;2023-12-20T15:29:47;4.10;99.90
1568;DHT22;777;47.156;8.326;2023-12-20T15:32:15;4.00;99.90
1568;DHT22;777;47.156;8.326;2023-12-20T15:34:44;4.00;99.90
1568;DHT22;777;47.156;8.326;2023-12-20T15:37:11;3.90;99.90
1568;DHT22;777;47.156;8.326;2023-12-20T15:39:41;3.90;99.90
1568;DHT22;777;47.156;8.326;2023-12-20T15:42:08;3.80;99.90
1568;DHT22;777;47.156;8.326;2023-12-20T15:44:35;3.70;99.90
1568;DHT22;777;47.156;8.326;2023-12-20T15:47:02;3.60;99.90
1568;DHT22;777;47.156;8.326;2023-12-20T15:49:29;3.60;99.90
1568;DHT22;777;47.156;8.326;2023-12-20T15:51:56;3.50;99.90
1568;DHT22;777;47.156;8.326;2023-12-20T15:54:23;3.40;99.90
1568;DHT22;777;47.156;8.326;2023-12-20T15:56:52;3.40;99.90
1568;DHT22;777;47.156;8.326;2023-12-20T15:59:18;3.30;99.90
1568;DHT22;777;47.156;8.326;2023-12-20T16:01:45;3.30;99.90
1568;DHT22;777;47.156;8.326;2023-12-20T16:04:12;3.30;99.90
1568;DHT22;777;47.156;8.326;2023-12-20T16:06:39;3.40;99.90
1568;DHT22;777;47.156;8.326;2023-12-20T16:09:06;3.40;99.90
1568;DHT22;777;47.156;8.326;2023-12-20T16:11:34;3.40;99.90
1568;DHT22;777;47.156;8.326;2023-12-20T16:14:02;3.40;99.90
1568;DHT22;777;47.156;8.326;2023-12-20T16:16:29;3.30;99.90
1568;DHT22;777;47.156;8.326;2023-12-20T16:18:56;3.30;99.90
1568;DHT22;777;47.156;8.326;2023-12-20T16:21:23;3.20;99.90
1568;DHT22;777;47.156;8.326;2023-12-20T16:23:50;3.10;99.90
1568;DHT22;777;47.156;8.326;2023-12-20T16:26:17;3.00;99.90
1568;DHT22;777;47.156;8.326;2023-12-20T16:28:44;2.90;99.90
1568;DHT22;777;47.156;8.326;2023-12-20T16:31:13;2.90;99.90
1568;DHT22;777;47.156;8.326;2023-12-20T16:33:40;2.80;99.90
1568;DHT22;777;47.156;8.326;2023-12-20T16:36:07;2.80;99.90